KHUT Airport (Hutchinson Rgnl) Information

FAA: HUT - ICAO: KHUT

KHUT Airport Location

State Kansas
County Reno
City Hutchinson
KHUT Airport is 3 miles east of Hutchinson, KS.
Latitude 38-03-58.1570N
Longitude 097-51-37.7630W
Elevation 1,542ft

KHUT Airport METARs

METAR KHUT 161752Z 19017KT 10SM CLR 31/18 A2993 RMK AO2 SLP111 T03110178 10311 20183 58011
Altimeter 29.93"
Temperature 31.1°C (88.0°F)
Wind 190° at 17KT
Clouds Skies are clear.
Visibility 10.0mi
Time observed: 2021-09-16T17:52:00Z

KHUT Airport Details

Status Operational
Activation April 1940
Ownership Public
Usage Public
Chart WICHITA
ATC on-site Yes
Beacon schedule sunset-sunrise
Beacon color clear green

KHUT Airport Contacts

Owner CITY OF HUTCHINSON
Owner address BOX 1567, HUTCHINSON, KS 67504
Owner phone 620-694-2611
Manager CARL WEAVER
Manager address 5631 N. RIDGE RD., HALSTEAD, KS 06705
Manager phone (316) 772-2111

KHUT Airport (Hutchinson Rgnl) Radio Frequencies

KHUT (Airport) Radio Frequencies

UNICOM 122.95
Common traffic advisory frequency (CTAF) 118.5